createdAt,value
2018-12-25T00:00:04.012Z,5.20
2018-12-25T00:01:04.027Z,5.80
2018-12-25T00:02:04.041Z,5.00
2018-12-25T00:03:04.056Z,5.50
2018-12-25T00:04:04.071Z,5.60
2018-12-25T00:05:04.086Z,5.50
2018-12-25T00:06:04.100Z,5.50
2018-12-25T00:07:04.115Z,5.00
2018-12-25T00:08:04.132Z,5.90
2018-12-25T00:09:04.148Z,5.60
2018-12-25T00:10:04.163Z,5.30
2018-12-25T00:11:04.179Z,5.40
2018-12-25T00:12:04.196Z,5.10
2018-12-25T00:13:04.210Z,5.60
2018-12-25T00:14:06.098Z,6.00
2018-12-25T00:15:04.236Z,6.00
2018-12-25T00:16:04.254Z,5.80
2018-12-25T00:17:04.267Z,5.80
2018-12-25T00:18:04.285Z,6.10
2018-12-25T00:19:06.337Z,5.40
2018-12-25T00:20:04.319Z,5.00
2018-12-25T00:21:04.331Z,5.80
2018-12-25T00:22:04.342Z,5.40
2018-12-25T00:23:04.363Z,5.80
2018-12-25T00:24:04.376Z,5.10
2018-12-25T00:25:04.399Z,5.30
2018-12-25T00:26:04.403Z,5.00
2018-12-25T00:27:04.420Z,5.20
2018-12-25T00:28:04.434Z,5.60
2018-12-25T00:29:04.450Z,5.60
2018-12-25T00:30:04.465Z,5.40
2018-12-25T00:31:04.482Z,6.00
2018-12-25T00:32:04.497Z,5.10
2018-12-25T00:33:04.513Z,5.80
2018-12-25T00:34:04.525Z,5.40
2018-12-25T00:35:04.544Z,5.00
2018-12-25T00:36:04.559Z,5.60
2018-12-25T00:37:04.574Z,5.90
2018-12-25T00:38:04.588Z,5.30
2018-12-25T00:39:04.603Z,5.40
2018-12-25T00:40:04.616Z,5.40
2018-12-25T00:41:04.636Z,5.30
2018-12-25T00:42:04.647Z,5.30
2018-12-25T00:43:04.662Z,5.40
2018-12-25T00:44:04.677Z,5.30
2018-12-25T00:45:04.693Z,5.00
2018-12-25T00:46:04.712Z,5.30
2018-12-25T00:47:04.723Z,5.70
2018-12-25T00:48:04.738Z,4.70
2018-12-25T00:49:04.784Z,5.20
2018-12-25T00:50:04.768Z,5.70
2018-12-25T00:51:04.784Z,5.30
2018-12-25T00:52:04.799Z,5.10
2018-12-25T00:53:04.815Z,5.30
2018-12-25T00:54:04.829Z,5.30
2018-12-25T00:55:04.848Z,5.80
2018-12-25T00:56:04.860Z,5.30
2018-12-25T00:57:04.878Z,5.50
2018-12-25T00:58:04.900Z,5.50
2018-12-25T00:59:04.908Z,5.40
2018-12-25T01:00:04.923Z,4.90
2018-12-25T01:01:04.937Z,5.90
2018-12-25T01:02:04.953Z,4.90
2018-12-25T01:03:04.967Z,4.40
2018-12-25T01:04:04.988Z,5.40
2018-12-25T01:05:05.001Z,5.30
2018-12-25T01:06:05.016Z,5.30
2018-12-25T01:07:05.030Z,5.10
2018-12-25T01:08:05.045Z,5.10
2018-12-25T01:09:05.059Z,5.00
2018-12-25T01:10:05.078Z,4.80
2018-12-25T01:11:05.096Z,5.20
2018-12-25T01:12:05.106Z,5.10
2018-12-25T01:13:05.121Z,4.80
2018-12-25T01:14:05.137Z,4.80
2018-12-25T01:15:05.152Z,4.40
2018-12-25T01:16:05.166Z,5.10
2018-12-25T01:17:05.183Z,5.30
2018-12-25T01:18:05.195Z,4.90
2018-12-25T01:19:05.211Z,4.60
2018-12-25T01:20:05.229Z,5.10
2018-12-25T01:21:05.244Z,5.30
2018-12-25T01:22:05.259Z,4.80
2018-12-25T01:23:05.272Z,4.90
2018-12-25T01:24:05.290Z,4.70
2018-12-25T01:25:05.361Z,4.60
2018-12-25T01:26:05.321Z,4.50
2018-12-25T01:27:05.333Z,4.30
2018-12-25T01:28:05.352Z,5.20
2018-12-25T01:29:05.366Z,4.60
2018-12-25T01:30:05.381Z,4.80
2018-12-25T01:31:05.397Z,4.80
2018-12-25T01:32:05.411Z,4.80
2018-12-25T01:33:05.427Z,5.40
2018-12-25T01:34:05.448Z,4.40
2018-12-25T01:35:05.459Z,5.00
2018-12-25T01:36:05.471Z,4.80
2018-12-25T01:37:05.486Z,4.80
2018-12-25T01:38:05.503Z,4.90
2018-12-25T01:39:05.516Z,4.50
2018-12-25T01:40:05.532Z,4.20
2018-12-25T01:41:05.551Z,5.00
2018-12-25T01:42:05.561Z,4.40
2018-12-25T01:43:05.579Z,4.70
2018-12-25T01:44:05.593Z,4.60
2018-12-25T01:45:05.610Z,4.80
2018-12-25T01:46:05.622Z,4.90
2018-12-25T01:47:05.638Z,5.00
2018-12-25T01:48:05.654Z,4.90
2018-12-25T01:49:05.669Z,5.30
2018-12-25T01:50:05.683Z,5.40
2018-12-25T01:51:05.700Z,4.50
2018-12-25T01:52:05.714Z,5.40
2018-12-25T01:53:05.730Z,5.20
2018-12-25T01:54:05.744Z,4.70
2018-12-25T01:55:05.761Z,4.60
2018-12-25T01:56:05.775Z,5.00
2018-12-25T01:57:05.790Z,4.30
2018-12-25T01:58:05.808Z,4.40
2018-12-25T01:59:05.820Z,4.60
2018-12-25T02:00:05.835Z,4.60
2018-12-25T02:01:05.850Z,5.50
2018-12-25T02:02:05.865Z,4.50
2018-12-25T02:03:05.880Z,4.40
2018-12-25T02:04:05.895Z,4.70
2018-12-25T02:05:05.915Z,4.50
2018-12-25T02:06:05.928Z,4.60
2018-12-25T02:07:05.943Z,4.40
2018-12-25T02:08:05.959Z,4.70
2018-12-25T02:09:05.974Z,4.70
2018-12-25T02:10:05.989Z,5.20
2018-12-25T02:11:06.003Z,5.10
2018-12-25T02:12:06.017Z,4.70
2018-12-25T02:13:06.037Z,4.50
2018-12-25T02:14:06.050Z,5.20
2018-12-25T02:15:06.068Z,4.60
2018-12-25T02:16:06.078Z,4.80
2018-12-25T02:17:06.093Z,5.10
2018-12-25T02:18:06.110Z,4.40
2018-12-25T02:19:06.125Z,4.60
2018-12-25T02:20:06.142Z,4.60
2018-12-25T02:21:06.156Z,5.30
2018-12-25T02:22:06.168Z,5.20
2018-12-25T02:23:06.183Z,4.70
2018-12-25T02:24:06.201Z,5.40
2018-12-25T02:25:06.217Z,4.80
2018-12-25T02:26:06.229Z,5.30
2018-12-25T02:27:06.245Z,4.90
2018-12-25T02:28:06.260Z,4.80
2018-12-25T02:29:06.276Z,5.60
2018-12-25T02:30:06.308Z,5.30
2018-12-25T02:31:06.306Z,5.00
2018-12-25T02:32:06.321Z,5.30
2018-12-25T02:33:06.336Z,5.10
2018-12-25T02:34:06.354Z,5.20
2018-12-25T02:35:06.369Z,5.80
2018-12-25T02:36:06.447Z,6.00
2018-12-25T02:37:06.401Z,6.20
2018-12-25T02:38:06.412Z,5.80
2018-12-25T02:39:06.428Z,5.20
2018-12-25T02:40:06.444Z,5.80
2018-12-25T02:41:06.460Z,6.10
2018-12-25T02:42:06.473Z,5.20
2018-12-25T02:43:06.492Z,5.00
2018-12-25T02:44:06.506Z,5.70
2018-12-25T02:45:06.519Z,5.80
2018-12-25T02:46:06.536Z,5.80
2018-12-25T02:47:06.557Z,6.30
2018-12-25T02:48:06.578Z,5.60
2018-12-25T02:49:06.579Z,7.00
2018-12-25T02:50:06.594Z,5.60
2018-12-25T02:51:06.614Z,5.80
2018-12-25T02:52:06.628Z,5.70
2018-12-25T02:53:06.644Z,5.40
2018-12-25T02:54:06.656Z,5.10
2018-12-25T02:55:06.682Z,4.90
2018-12-25T02:56:06.686Z,4.90
2018-12-25T02:57:06.704Z,5.30
2018-12-25T02:58:06.719Z,5.00
2018-12-25T02:59:06.732Z,5.80
2018-12-25T03:00:06.749Z,5.00
2018-12-25T03:01:06.761Z,5.00
2018-12-25T03:02:06.778Z,5.30
2018-12-25T03:03:06.797Z,5.40
2018-12-25T03:04:06.809Z,5.10
2018-12-25T03:05:06.825Z,5.50
2018-12-25T03:06:06.837Z,5.30
2018-12-25T03:07:06.857Z,6.00
2018-12-25T03:08:06.869Z,5.40
2018-12-25T03:09:06.886Z,5.60
2018-12-25T03:10:06.898Z,5.60
2018-12-25T03:11:06.966Z,5.60
2018-12-25T03:12:06.935Z,5.80
2018-12-25T03:13:07.021Z,5.60
2018-12-25T03:14:06.959Z,4.70
2018-12-25T03:15:06.974Z,5.60
2018-12-25T03:16:06.991Z,6.40
2018-12-25T03:17:07.044Z,6.00
2018-12-25T03:18:07.021Z,6.00
2018-12-25T03:19:07.033Z,5.00
2018-12-25T03:20:07.052Z,5.80
2018-12-25T03:21:07.064Z,5.70
2018-12-25T03:22:07.083Z,5.20
2018-12-25T03:23:07.106Z,5.00
2018-12-25T03:24:07.108Z,6.00
2018-12-25T03:25:07.127Z,6.40
2018-12-25T03:26:07.142Z,6.20
2018-12-25T03:27:07.219Z,7.00
2018-12-25T03:28:07.181Z,5.30
2018-12-25T03:29:07.188Z,5.60
2018-12-25T03:30:07.199Z,5.70
2018-12-25T03:31:07.217Z,6.20
2018-12-25T03:32:07.231Z,6.10
2018-12-25T03:33:07.248Z,5.70
2018-12-25T03:34:07.259Z,5.80
2018-12-25T03:35:07.274Z,5.40
2018-12-25T03:36:07.289Z,6.30
2018-12-25T03:37:07.306Z,6.30
2018-12-25T03:38:07.319Z,6.40
2018-12-25T03:39:07.339Z,6.30
2018-12-25T03:40:07.353Z,6.00
2018-12-25T03:41:07.365Z,6.10
2018-12-25T03:42:07.385Z,6.30
2018-12-25T03:43:07.395Z,6.30
2018-12-25T03:44:07.411Z,5.80
2018-12-25T03:45:07.425Z,5.90
2018-12-25T03:46:07.492Z,6.10
2018-12-25T03:47:07.455Z,5.50
2018-12-25T03:48:07.470Z,6.20
2018-12-25T03:49:07.488Z,6.30
2018-12-25T03:50:10.903Z,7.00
2018-12-25T03:51:07.522Z,6.70
2018-12-25T03:52:07.533Z,6.90
2018-12-25T03:53:07.549Z,6.30
2018-12-25T03:54:07.562Z,6.40
2018-12-25T03:55:07.577Z,6.30
2018-12-25T03:56:07.592Z,7.60
2018-12-25T03:57:07.608Z,6.40
2018-12-25T03:58:07.623Z,6.80
2018-12-25T03:59:07.639Z,6.00
2018-12-25T04:00:07.653Z,6.70
2018-12-25T04:01:07.665Z,6.40
2018-12-25T04:02:07.682Z,5.90
2018-12-25T04:03:07.694Z,6.70
2018-12-25T04:04:07.716Z,6.80
2018-12-25T04:05:07.728Z,6.20
2018-12-25T04:06:07.740Z,6.70
2018-12-25T04:07:07.755Z,6.60
2018-12-25T04:08:07.772Z,6.50
2018-12-25T04:09:07.784Z,6.50
2018-12-25T04:10:07.802Z,7.00
2018-12-25T04:11:07.873Z,7.00
2018-12-25T04:12:07.829Z,6.40
2018-12-25T04:13:07.845Z,6.70
2018-12-25T04:14:07.869Z,6.70
2018-12-25T04:15:07.876Z,6.90
2018-12-25T04:16:07.888Z,7.00
2018-12-25T04:17:07.905Z,7.00
2018-12-25T04:18:07.924Z,6.80
2018-12-25T04:19:07.932Z,6.60
2018-12-25T04:20:07.951Z,7.50
2018-12-25T04:21:07.970Z,5.90
2018-12-25T04:22:07.981Z,6.70
2018-12-25T04:23:07.992Z,6.20
2018-12-25T04:24:08.009Z,5.90
2018-12-25T04:25:08.023Z,6.40
2018-12-25T04:26:08.037Z,6.70
2018-12-25T04:27:08.065Z,6.60
2018-12-25T04:28:08.068Z,6.50
2018-12-25T04:29:08.084Z,7.10
2018-12-25T04:30:08.102Z,6.80
2018-12-25T04:31:08.117Z,7.10
2018-12-25T04:32:08.131Z,7.10
2018-12-25T04:33:08.144Z,7.40
2018-12-25T04:34:08.159Z,6.80
2018-12-25T04:35:08.171Z,6.70
2018-12-25T04:36:08.189Z,6.60
2018-12-25T04:37:08.204Z,7.60
2018-12-25T04:38:08.217Z,7.30
2018-12-25T04:39:08.234Z,6.90
2018-12-25T04:40:08.247Z,6.90
2018-12-25T04:41:08.267Z,6.60
2018-12-25T04:42:08.276Z,7.20
2018-12-25T04:43:08.292Z,7.10
2018-12-25T04:44:08.306Z,6.80
2018-12-25T04:45:08.322Z,7.00
2018-12-25T04:46:08.342Z,6.40
2018-12-25T04:47:08.354Z,6.70
2018-12-25T04:48:08.368Z,7.10
2018-12-25T04:49:08.384Z,7.10
2018-12-25T04:50:08.399Z,6.90
2018-12-25T04:51:08.414Z,6.30
2018-12-25T04:52:08.425Z,6.40
2018-12-25T04:53:08.445Z,6.90
2018-12-25T04:54:08.460Z,7.20
2018-12-25T04:55:08.472Z,6.50
2018-12-25T04:56:08.488Z,7.10
2018-12-25T04:57:08.501Z,7.80
2018-12-25T04:58:08.516Z,6.80
2018-12-25T04:59:08.530Z,7.60
2018-12-25T05:00:08.548Z,7.10
2018-12-25T05:01:08.560Z,6.70
2018-12-25T05:02:08.583Z,7.20
2018-12-25T05:03:08.591Z,6.50
2018-12-25T05:04:08.616Z,7.40
2018-12-25T05:05:08.622Z,6.90
2018-12-25T05:06:08.641Z,7.50
2018-12-25T05:07:08.649Z,7.20
2018-12-25T05:08:08.664Z,7.00
2018-12-25T05:09:08.682Z,7.10
2018-12-25T05:10:08.695Z,7.00
2018-12-25T05:11:08.712Z,7.50
2018-12-25T05:12:08.728Z,7.20
2018-12-25T05:13:08.741Z,7.10
2018-12-25T05:14:08.754Z,6.60
2018-12-25T05:15:08.775Z,7.30
2018-12-25T05:16:08.787Z,7.20
2018-12-25T05:17:08.799Z,7.30
2018-12-25T05:18:08.813Z,6.80
2018-12-25T05:19:08.831Z,8.20
2018-12-25T05:20:08.847Z,7.10
2018-12-25T05:21:08.859Z,7.90
2018-12-25T05:22:08.874Z,7.30
2018-12-25T05:23:08.889Z,6.90
2018-12-25T05:24:08.904Z,7.10
2018-12-25T05:25:08.919Z,8.10
2018-12-25T05:26:08.939Z,7.30
2018-12-25T05:27:08.949Z,7.70
2018-12-25T05:28:08.967Z,7.30
2018-12-25T05:29:08.982Z,7.80
2018-12-25T05:30:08.994Z,6.70
2018-12-25T05:31:09.016Z,7.60
2018-12-25T05:32:09.027Z,7.30
2018-12-25T05:33:09.039Z,7.30
2018-12-25T05:34:09.058Z,7.30
2018-12-25T05:35:09.074Z,7.40
2018-12-25T05:36:09.086Z,7.10
2018-12-25T05:37:09.103Z,7.10
2018-12-25T05:38:09.120Z,7.00
2018-12-25T05:39:09.130Z,7.80
2018-12-25T05:40:09.145Z,7.50
2018-12-25T05:41:09.158Z,8.10
2018-12-25T05:42:09.172Z,7.30
2018-12-25T05:43:09.188Z,7.60
2018-12-25T05:44:09.203Z,8.20
2018-12-25T05:45:09.371Z,7.80
2018-12-25T05:46:09.233Z,7.10
2018-12-25T05:47:09.247Z,7.60
2018-12-25T05:48:09.264Z,8.40
2018-12-25T05:49:09.279Z,7.40
2018-12-25T05:50:09.291Z,7.80
2018-12-25T05:51:09.306Z,7.70
2018-12-25T05:52:09.329Z,6.90
2018-12-25T05:53:09.337Z,7.50
2018-12-25T05:54:09.354Z,8.10
2018-12-25T05:55:09.369Z,7.00
2018-12-25T05:56:09.382Z,7.40
2018-12-25T05:57:09.396Z,7.00
2018-12-25T05:58:09.409Z,7.40
2018-12-25T05:59:09.425Z,7.60
2018-12-25T06:00:09.441Z,7.10
2018-12-25T06:01:09.458Z,7.40
2018-12-25T06:02:09.474Z,7.20
2018-12-25T06:03:09.486Z,6.80
2018-12-25T06:04:09.500Z,7.20
2018-12-25T06:05:09.514Z,7.60
2018-12-25T06:06:09.529Z,6.80
2018-12-25T06:07:09.547Z,7.20
2018-12-25T06:08:09.559Z,7.70
2018-12-25T06:09:09.574Z,7.30
2018-12-25T06:10:09.591Z,7.80
2018-12-25T06:11:09.605Z,7.30
2018-12-25T06:12:09.618Z,6.80
2018-12-25T06:13:09.635Z,7.20
2018-12-25T06:14:09.651Z,6.80
2018-12-25T06:15:09.666Z,7.30
2018-12-25T06:16:09.680Z,7.80
2018-12-25T06:17:09.695Z,6.80
2018-12-25T06:18:09.707Z,7.80
2018-12-25T06:19:09.722Z,7.50
2018-12-25T06:20:09.738Z,7.30
2018-12-25T06:21:09.752Z,7.50
2018-12-25T06:22:09.768Z,7.20
2018-12-25T06:23:09.785Z,7.60
2018-12-25T06:24:09.800Z,7.40
2018-12-25T06:25:09.817Z,7.40
2018-12-25T06:26:09.827Z,6.40
2018-12-25T06:27:09.842Z,7.60
2018-12-25T06:28:09.861Z,7.60
2018-12-25T06:29:09.874Z,7.00
2018-12-25T06:30:09.888Z,7.10
2018-12-25T06:31:09.905Z,6.80
2018-12-25T06:32:09.919Z,7.40
2018-12-25T06:33:09.934Z,7.20
2018-12-25T06:34:09.946Z,7.40
2018-12-25T06:35:09.966Z,7.40
2018-12-25T06:36:09.978Z,8.20
2018-12-25T06:37:09.992Z,8.00
2018-12-25T06:38:10.006Z,7.80
2018-12-25T06:39:10.023Z,7.60
2018-12-25T06:40:10.038Z,7.30
2018-12-25T06:41:10.052Z,7.00
2018-12-25T06:42:10.068Z,8.10
2018-12-25T06:43:10.083Z,7.40
2018-12-25T06:44:10.100Z,7.50
2018-12-25T06:45:10.115Z,7.30
2018-12-25T06:46:10.129Z,7.60
2018-12-25T06:47:10.145Z,7.20
2018-12-25T06:48:10.160Z,7.60
2018-12-25T06:49:10.173Z,7.80
2018-12-25T06:50:10.189Z,7.20
2018-12-25T06:51:10.205Z,6.80
2018-12-25T06:52:10.218Z,6.70
2018-12-25T06:53:10.231Z,7.70
2018-12-25T06:54:10.248Z,7.90
2018-12-25T06:55:10.263Z,7.40
2018-12-25T06:56:10.278Z,7.60
2018-12-25T06:57:10.292Z,7.50
2018-12-25T06:58:10.308Z,8.20
2018-12-25T06:59:10.320Z,7.60
2018-12-25T07:00:10.338Z,7.40
2018-12-25T07:01:10.351Z,7.10
2018-12-25T07:02:10.369Z,7.10
2018-12-25T07:03:10.382Z,7.10
2018-12-25T07:04:10.397Z,6.50
2018-12-25T07:05:10.415Z,7.50
2018-12-25T07:06:10.426Z,7.40
2018-12-25T07:07:10.443Z,7.10
2018-12-25T07:08:10.456Z,7.90
2018-12-25T07:09:10.473Z,6.90
2018-12-25T07:10:10.486Z,7.70
2018-12-25T07:11:10.501Z,7.90
2018-12-25T07:12:10.518Z,7.30
2018-12-25T07:13:10.531Z,7.30
2018-12-25T07:14:10.545Z,7.70
2018-12-25T07:15:10.561Z,7.30
2018-12-25T07:16:10.580Z,7.50
2018-12-25T07:17:10.591Z,7.30
2018-12-25T07:18:10.605Z,8.00
2018-12-25T07:19:10.622Z,7.00
2018-12-25T07:20:10.639Z,7.60
2018-12-25T07:21:12.207Z,7.70
2018-12-25T07:22:10.665Z,7.10
2018-12-25T07:23:10.682Z,7.50
2018-12-25T07:24:10.695Z,7.70
2018-12-25T07:25:10.712Z,7.70
2018-12-25T07:26:10.727Z,7.90
2018-12-25T07:27:10.742Z,7.60
2018-12-25T07:28:10.759Z,7.90
2018-12-25T07:29:10.770Z,7.80
2018-12-25T07:30:10.784Z,7.60
2018-12-25T07:31:10.800Z,7.10
2018-12-25T07:32:10.815Z,7.60
2018-12-25T07:33:10.830Z,7.10
2018-12-25T07:34:10.844Z,7.20
2018-12-25T07:35:10.859Z,7.40
2018-12-25T07:36:10.874Z,8.10
2018-12-25T07:37:10.893Z,7.50
2018-12-25T07:38:10.907Z,8.00
2018-12-25T07:39:10.919Z,7.40
2018-12-25T07:40:10.936Z,7.10
2018-12-25T07:41:10.949Z,6.90
2018-12-25T07:42:10.965Z,7.40
2018-12-25T07:43:10.979Z,7.10
2018-12-25T07:44:10.994Z,7.40
2018-12-25T07:45:11.011Z,7.70
2018-12-25T07:46:11.025Z,8.20
2018-12-25T07:47:11.314Z,7.20
2018-12-25T07:48:11.055Z,7.50
2018-12-25T07:49:11.070Z,7.40
2018-12-25T07:50:11.083Z,6.80
2018-12-25T07:51:11.099Z,7.70
2018-12-25T07:52:11.114Z,7.30
2018-12-25T07:53:11.129Z,7.20
2018-12-25T07:54:11.147Z,7.50
2018-12-25T07:55:11.161Z,7.50
2018-12-25T07:56:11.173Z,7.10
2018-12-25T07:57:11.189Z,7.10
2018-12-25T07:58:11.203Z,7.40
2018-12-25T07:59:11.223Z,7.90
2018-12-25T08:00:11.237Z,6.80
2018-12-25T08:01:11.250Z,8.40
2018-12-25T08:02:11.267Z,7.30
2018-12-25T08:03:11.281Z,7.50
2018-12-25T08:04:11.295Z,7.30
2018-12-25T08:05:11.312Z,7.70
2018-12-25T08:06:11.324Z,6.60
2018-12-25T08:07:11.342Z,7.20
2018-12-25T08:08:11.357Z,7.00
2018-12-25T08:09:11.373Z,6.80
2018-12-25T08:10:11.384Z,6.90
2018-12-25T08:11:11.402Z,7.50
2018-12-25T08:12:11.417Z,7.40
2018-12-25T08:13:11.433Z,6.80
2018-12-25T08:14:11.448Z,7.10
2018-12-25T08:15:11.460Z,7.20
2018-12-25T08:16:11.476Z,6.80
2018-12-25T08:17:11.543Z,7.30
2018-12-25T08:18:11.508Z,7.20
2018-12-25T08:19:11.523Z,7.40
2018-12-25T08:20:11.536Z,7.00
2018-12-25T08:21:11.551Z,6.80
2018-12-25T08:22:11.572Z,7.80
2018-12-25T08:23:11.584Z,6.90
2018-12-25T08:24:11.599Z,7.70
2018-12-25T08:25:11.614Z,7.40
2018-12-25T08:26:11.627Z,7.30
2018-12-25T08:27:11.642Z,8.00
2018-12-25T08:28:11.657Z,7.00
2018-12-25T08:29:11.672Z,7.10
2018-12-25T08:30:11.695Z,7.20
2018-12-25T08:31:11.703Z,7.20
2018-12-25T08:32:11.720Z,7.50
2018-12-25T08:33:11.733Z,7.00
2018-12-25T08:34:11.748Z,7.50
2018-12-25T08:35:11.764Z,7.30
2018-12-25T08:36:11.779Z,7.40
2018-12-25T08:37:11.797Z,6.90
2018-12-25T08:38:11.809Z,6.60
2018-12-25T08:39:11.827Z,7.50
2018-12-25T08:40:11.843Z,7.70
2018-12-25T08:41:11.856Z,6.80
2018-12-25T08:42:11.873Z,7.20
2018-12-25T08:43:11.888Z,7.10
2018-12-25T08:44:11.905Z,7.20
2018-12-25T08:45:11.920Z,6.80
2018-12-25T08:46:11.931Z,6.90
2018-12-25T08:47:11.950Z,6.40
2018-12-25T08:48:11.965Z,6.70
2018-12-25T08:49:11.980Z,6.40
2018-12-25T08:50:11.994Z,6.50
2018-12-25T08:51:12.010Z,7.20
2018-12-25T08:52:12.025Z,6.50
2018-12-25T08:53:12.039Z,6.40
2018-12-25T08:54:12.057Z,6.40
2018-12-25T08:55:12.069Z,6.90
2018-12-25T08:56:12.085Z,6.40
2018-12-25T08:57:12.105Z,7.00
2018-12-25T08:58:12.120Z,7.10
2018-12-25T08:59:12.133Z,7.00
2018-12-25T09:00:12.151Z,6.10
2018-12-25T09:01:12.166Z,6.40
2018-12-25T09:02:12.178Z,6.80
2018-12-25T09:03:12.195Z,6.80
2018-12-25T09:04:12.207Z,6.60
2018-12-25T09:05:12.227Z,7.60
2018-12-25T09:06:12.240Z,6.60
2018-12-25T09:07:12.256Z,7.00
2018-12-25T09:08:12.269Z,6.90
2018-12-25T09:09:12.288Z,6.60
2018-12-25T09:10:12.304Z,6.50
2018-12-25T09:11:12.318Z,6.80
2018-12-25T09:12:12.333Z,7.00
2018-12-25T09:13:12.351Z,7.80
2018-12-25T09:14:12.364Z,6.50
2018-12-25T09:15:12.377Z,8.00
2018-12-25T09:16:12.395Z,6.40
2018-12-25T09:17:12.411Z,7.40
2018-12-25T09:18:12.429Z,6.90
2018-12-25T09:19:12.441Z,6.90
2018-12-25T09:20:12.454Z,6.70
2018-12-25T09:21:12.470Z,6.60
2018-12-25T09:22:12.492Z,7.50
2018-12-25T09:23:12.500Z,7.10
2018-12-25T09:24:12.517Z,6.90
2018-12-25T09:25:12.531Z,7.00
2018-12-25T09:26:12.546Z,6.90
2018-12-25T09:27:12.566Z,6.90
2018-12-25T09:28:12.577Z,6.90
2018-12-25T09:29:12.593Z,6.60
2018-12-25T09:30:12.608Z,6.20
2018-12-25T09:31:12.623Z,7.20
2018-12-25T09:32:12.641Z,6.60
2018-12-25T09:33:12.655Z,6.80
2018-12-25T09:34:12.672Z,6.90
2018-12-25T09:35:12.688Z,7.20
2018-12-25T09:36:12.703Z,6.50
2018-12-25T09:37:12.720Z,6.90
2018-12-25T09:38:12.733Z,6.70
2018-12-25T09:39:12.747Z,7.10
2018-12-25T09:40:12.762Z,7.10
2018-12-25T09:41:12.780Z,7.10
2018-12-25T09:42:12.792Z,6.60
2018-12-25T09:43:12.808Z,7.30
2018-12-25T09:44:12.825Z,7.50
2018-12-25T09:45:12.844Z,7.30
2018-12-25T09:46:12.854Z,7.40
2018-12-25T09:47:12.872Z,6.40
2018-12-25T09:48:13.440Z,7.50
2018-12-25T09:49:12.904Z,7.10
2018-12-25T09:50:12.916Z,8.00
2018-12-25T09:51:12.933Z,8.10
2018-12-25T09:52:12.946Z,7.60
2018-12-25T09:53:14.875Z,7.30
2018-12-25T09:54:12.977Z,9.20
2018-12-25T09:55:12.993Z,7.90
2018-12-25T09:56:13.007Z,8.60
2018-12-25T09:57:13.025Z,7.90
2018-12-25T09:58:13.042Z,7.50
2018-12-25T09:59:13.054Z,7.30
2018-12-25T10:00:13.070Z,7.80
2018-12-25T10:01:13.085Z,6.90
2018-12-25T10:02:13.103Z,6.90
2018-12-25T10:03:13.118Z,7.00
2018-12-25T10:04:13.134Z,7.40
2018-12-25T10:05:13.147Z,7.30
2018-12-25T10:06:13.165Z,6.90
2018-12-25T10:07:13.181Z,7.20
2018-12-25T10:08:13.194Z,7.70
2018-12-25T10:09:13.210Z,7.90
2018-12-25T10:10:13.224Z,7.60
2018-12-25T10:11:13.240Z,7.50
2018-12-25T10:12:13.258Z,7.50
2018-12-25T10:13:13.274Z,8.30
2018-12-25T10:14:13.287Z,7.20
2018-12-25T10:15:13.305Z,8.10
2018-12-25T10:16:13.321Z,7.10
2018-12-25T10:17:13.335Z,8.10
2018-12-25T10:18:13.351Z,7.60
2018-12-25T10:19:13.367Z,7.70
2018-12-25T10:20:13.383Z,7.80
2018-12-25T10:21:13.398Z,7.70
2018-12-25T10:22:13.418Z,7.30
2018-12-25T10:23:13.430Z,7.70
2018-12-25T10:24:13.445Z,7.10
2018-12-25T10:25:13.460Z,8.20
2018-12-25T10:26:13.484Z,8.10
2018-12-25T10:27:13.493Z,7.70
2018-12-25T10:28:13.518Z,7.30
2018-12-25T10:29:13.536Z,7.40
2018-12-25T10:30:13.538Z,7.80
2018-12-25T10:31:13.557Z,7.80
2018-12-25T10:32:13.571Z,7.50
2018-12-25T10:33:13.587Z,7.50
2018-12-25T10:34:13.603Z,8.40
2018-12-25T10:35:13.617Z,7.80
2018-12-25T10:36:13.635Z,7.50
2018-12-25T10:37:13.650Z,7.70
2018-12-25T10:38:13.665Z,7.00
2018-12-25T10:39:13.684Z,7.90
2018-12-25T10:40:13.699Z,8.20
2018-12-25T10:41:13.713Z,8.60
2018-12-25T10:42:13.728Z,7.20
2018-12-25T10:43:13.746Z,8.10
2018-12-25T10:44:13.763Z,8.00
2018-12-25T10:45:13.777Z,8.00
2018-12-25T10:46:13.794Z,8.10
2018-12-25T10:47:13.808Z,8.10
2018-12-25T10:48:13.829Z,7.60
2018-12-25T10:49:13.840Z,8.10
2018-12-25T10:50:13.857Z,8.10
2018-12-25T10:51:13.872Z,7.80
2018-12-25T10:52:13.889Z,7.90
2018-12-25T10:53:13.907Z,7.70
2018-12-25T10:54:13.921Z,8.00
2018-12-25T10:55:13.939Z,8.30
2018-12-25T10:56:13.955Z,8.90
2018-12-25T10:57:13.970Z,8.20
2018-12-25T10:58:13.986Z,8.60
2018-12-25T10:59:13.999Z,8.20
2018-12-25T11:00:14.015Z,8.10
2018-12-25T11:01:14.035Z,7.70
2018-12-25T11:02:14.046Z,8.30
2018-12-25T11:03:14.066Z,7.50
2018-12-25T11:04:14.080Z,8.50
2018-12-25T11:05:14.096Z,8.00
2018-12-25T11:06:14.109Z,8.00
2018-12-25T11:07:14.128Z,8.30
2018-12-25T11:08:14.144Z,8.50
2018-12-25T11:09:14.158Z,7.90
2018-12-25T11:10:14.176Z,9.00
2018-12-25T11:11:14.191Z,8.40
2018-12-25T11:12:14.208Z,8.40
2018-12-25T11:13:14.226Z,7.80
2018-12-25T11:14:14.238Z,8.20
2018-12-25T11:15:14.256Z,7.60
2018-12-25T11:16:14.269Z,8.40
2018-12-25T11:17:14.286Z,7.70
2018-12-25T11:18:14.300Z,7.90
2018-12-25T11:19:14.319Z,8.50
2018-12-25T11:20:14.333Z,8.30
2018-12-25T11:21:14.350Z,8.20
2018-12-25T11:22:19.823Z,8.40
2018-12-25T11:23:14.385Z,8.70
2018-12-25T11:24:14.398Z,8.60
2018-12-25T11:25:14.415Z,7.80
2018-12-25T11:26:14.430Z,7.90
2018-12-25T11:27:14.449Z,8.20
2018-12-25T11:28:14.465Z,8.30
2018-12-25T11:29:14.479Z,7.80
2018-12-25T11:30:14.494Z,7.80
2018-12-25T11:31:14.514Z,7.40
2018-12-25T11:32:14.529Z,8.10
2018-12-25T11:33:14.554Z,8.30
2018-12-25T11:34:14.562Z,8.20
2018-12-25T11:35:14.576Z,7.30
2018-12-25T11:36:14.592Z,7.60
2018-12-25T11:37:14.609Z,7.40
2018-12-25T11:38:14.627Z,7.40
2018-12-25T11:39:14.643Z,8.00
2018-12-25T11:40:14.658Z,7.90
2018-12-25T11:41:14.676Z,7.70
2018-12-25T11:42:14.689Z,8.20
2018-12-25T11:43:14.708Z,8.00
2018-12-25T11:44:14.722Z,7.30
2018-12-25T11:45:14.739Z,7.10
2018-12-25T11:46:14.758Z,8.00
2018-12-25T11:47:14.771Z,7.10
2018-12-25T11:48:14.790Z,8.10
2018-12-25T11:49:14.804Z,6.90
2018-12-25T11:50:14.823Z,8.40
2018-12-25T11:51:14.839Z,7.70
2018-12-25T11:52:14.853Z,8.10
2018-12-25T11:53:14.869Z,6.90
2018-12-25T11:54:14.887Z,7.90
2018-12-25T11:55:14.905Z,7.30
2018-12-25T11:56:14.920Z,7.30
2018-12-25T11:57:14.936Z,8.00
2018-12-25T11:58:14.953Z,7.30
2018-12-25T11:59:14.969Z,7.70
2018-12-25T12:00:14.989Z,7.90
2018-12-25T12:01:15.000Z,7.30
2018-12-25T12:02:17.189Z,7.80
2018-12-25T12:03:15.034Z,7.50
2018-12-25T12:04:15.050Z,7.90
2018-12-25T12:05:15.065Z,7.30
2018-12-25T12:06:15.084Z,7.40
2018-12-25T12:07:15.100Z,7.50
2018-12-25T12:08:15.114Z,7.60
2018-12-25T12:09:15.133Z,8.70
2018-12-25T12:10:15.145Z,10.70
2018-12-25T12:11:15.164Z,9.00
2018-12-25T12:12:15.181Z,7.70
2018-12-25T12:13:15.201Z,7.20
2018-12-25T12:14:15.210Z,6.90
2018-12-25T12:15:15.232Z,7.00
2018-12-25T12:16:15.243Z,7.50
2018-12-25T12:17:15.262Z,8.20
2018-12-25T12:18:15.275Z,7.50
2018-12-25T12:19:15.291Z,7.10
2018-12-25T12:20:15.311Z,8.30
2018-12-25T12:21:15.328Z,8.00
2018-12-25T12:22:15.342Z,7.60
2018-12-25T12:23:15.358Z,7.80
2018-12-25T12:24:15.375Z,7.50
2018-12-25T12:25:15.389Z,6.80
2018-12-25T12:26:15.408Z,6.80
2018-12-25T12:27:15.421Z,7.20
2018-12-25T12:28:15.441Z,8.00
2018-12-25T12:29:15.458Z,7.40
2018-12-25T12:30:15.472Z,7.50
2018-12-25T12:31:15.490Z,7.20
2018-12-25T12:32:15.502Z,7.70
2018-12-25T12:33:15.673Z,7.90
2018-12-25T12:34:15.536Z,7.10
2018-12-25T12:35:15.551Z,7.60
2018-12-25T12:36:15.569Z,7.70
2018-12-25T12:37:15.583Z,7.80
2018-12-25T12:38:15.600Z,7.60
2018-12-25T12:39:15.615Z,7.60
2018-12-25T12:40:15.640Z,7.40
2018-12-25T12:41:15.647Z,7.80
2018-12-25T12:42:15.666Z,6.90
2018-12-25T12:43:15.685Z,6.60
2018-12-25T12:44:15.696Z,7.00
2018-12-25T12:45:15.713Z,7.00
2018-12-25T12:46:15.731Z,7.10
2018-12-25T12:47:15.745Z,7.00
2018-12-25T12:48:15.762Z,7.00
2018-12-25T12:49:15.780Z,6.90
2018-12-25T12:50:15.794Z,8.00
2018-12-25T12:51:15.812Z,8.10
2018-12-25T12:52:15.829Z,8.20
2018-12-25T12:53:15.843Z,7.70
2018-12-25T12:54:15.859Z,7.90
2018-12-25T12:55:15.881Z,7.50
2018-12-25T12:56:15.895Z,7.20
2018-12-25T12:57:15.908Z,7.70
2018-12-25T12:58:15.924Z,8.50
2018-12-25T12:59:15.944Z,7.80
2018-12-25T13:00:15.958Z,7.30
2018-12-25T13:01:15.977Z,7.10
2018-12-25T13:02:15.990Z,7.20
2018-12-25T13:03:16.007Z,7.20
2018-12-25T13:04:16.026Z,7.50
2018-12-25T13:05:16.040Z,8.10
2018-12-25T13:06:16.057Z,7.30
2018-12-25T13:07:16.074Z,8.00
2018-12-25T13:08:16.089Z,7.80
2018-12-25T13:09:16.108Z,8.10
2018-12-25T13:10:16.124Z,8.20
2018-12-25T13:11:16.138Z,7.80
2018-12-25T13:12:16.157Z,7.60
2018-12-25T13:13:16.174Z,8.00
2018-12-25T13:14:16.194Z,7.80
2018-12-25T13:15:16.209Z,8.30
2018-12-25T13:16:16.220Z,8.10
2018-12-25T13:17:16.237Z,7.90
2018-12-25T13:18:16.256Z,9.10